sensor_id;sensor_type;location;lat;lon;timestamp;temperature;humidity
14585;DHT22;7379;51.506;11.876;2024-03-08T00:01:00;6.30;68.00
14585;DHT22;7379;51.506;11.876;2024-03-08T00:03:26;6.20;67.90
14585;DHT22;7379;51.506;11.876;2024-03-08T00:05:54;6.20;68.00
14585;DHT22;7379;51.506;11.876;2024-03-08T00:08:21;6.20;68.00
14585;DHT22;7379;51.506;11.876;2024-03-08T00:10:48;6.20;68.00
14585;DHT22;7379;51.506;11.876;2024-03-08T00:13:14;6.20;68.00
14585;DHT22;7379;51.506;11.876;2024-03-08T00:15:41;6.20;68.00
14585;DHT22;7379;51.506;11.876;2024-03-08T00:18:09;6.20;68.10
14585;DHT22;7379;51.506;11.876;2024-03-08T00:20:36;6.10;68.00
14585;DHT22;7379;51.506;11.876;2024-03-08T00:23:03;6.10;68.00
14585;DHT22;7379;51.506;11.876;2024-03-08T00:25:30;6.10;68.00
14585;DHT22;7379;51.506;11.876;2024-03-08T00:27:57;6.10;68.00
14585;DHT22;7379;51.506;11.876;2024-03-08T00:30:25;6.10;68.10
14585;DHT22;7379;51.506;11.876;2024-03-08T00:32:52;6.10;68.10
14585;DHT22;7379;51.506;11.876;2024-03-08T00:35:20;6.10;68.10
14585;DHT22;7379;51.506;11.876;2024-03-08T00:37:46;6.10;68.00
14585;DHT22;7379;51.506;11.876;2024-03-08T00:40:13;6.00;68.00
14585;DHT22;7379;51.506;11.876;2024-03-08T00:42:40;6.00;68.00
14585;DHT22;7379;51.506;11.876;2024-03-08T00:45:07;6.00;68.00
14585;DHT22;7379;51.506;11.876;2024-03-08T00:47:35;6.00;68.00
14585;DHT22;7379;51.506;11.876;2024-03-08T00:50:02;6.00;68.00
14585;DHT22;7379;51.506;11.876;2024-03-08T00:52:31;6.00;68.00
14585;DHT22;7379;51.506;11.876;2024-03-08T00:55:00;6.00;68.00
14585;DHT22;7379;51.506;11.876;2024-03-08T00:57:27;5.90;67.90
14585;DHT22;7379;51.506;11.876;2024-03-08T00:59:53;5.90;67.90
14585;DHT22;7379;51.506;11.876;2024-03-08T01:02:21;5.90;67.90
14585;DHT22;7379;51.506;11.876;2024-03-08T01:04:48;5.90;67.90
14585;DHT22;7379;51.506;11.876;2024-03-08T01:07:15;5.90;67.90
14585;DHT22;7379;51.506;11.876;2024-03-08T01:09:43;5.90;68.00
14585;DHT22;7379;51.506;11.876;2024-03-08T01:12:10;5.90;68.00
14585;DHT22;7379;51.506;11.876;2024-03-08T01:14:36;5.80;67.90
14585;DHT22;7379;51.506;11.876;2024-03-08T01:17:03;5.80;67.90
14585;DHT22;7379;51.506;11.876;2024-03-08T01:19:30;5.90;68.00
14585;DHT22;7379;51.506;11.876;2024-03-08T01:21:58;5.80;67.80
14585;DHT22;7379;51.506;11.876;2024-03-08T01:24:25;5.80;67.80
14585;DHT22;7379;51.506;11.876;2024-03-08T01:26:53;5.80;67.90
14585;DHT22;7379;51.506;11.876;2024-03-08T01:29:19;5.80;67.90
14585;DHT22;7379;51.506;11.876;2024-03-08T01:31:46;5.80;67.90
14585;DHT22;7379;51.506;11.876;2024-03-08T01:34:12;5.80;67.90
14585;DHT22;7379;51.506;11.876;2024-03-08T01:36:39;5.80;67.90
14585;DHT22;7379;51.506;11.876;2024-03-08T01:39:06;5.80;67.90
14585;DHT22;7379;51.506;11.876;2024-03-08T01:41:33;5.70;67.90
14585;DHT22;7379;51.506;11.876;2024-03-08T01:44:02;5.70;67.90
14585;DHT22;7379;51.506;11.876;2024-03-08T01:46:30;5.70;67.90
14585;DHT22;7379;51.506;11.876;2024-03-08T01:48:57;5.70;67.90
14585;DHT22;7379;51.506;11.876;2024-03-08T01:51:26;5.70;67.90
14585;DHT22;7379;51.506;11.876;2024-03-08T01:53:56;5.70;67.90
14585;DHT22;7379;51.506;11.876;2024-03-08T01:56:24;5.60;67.90
14585;DHT22;7379;51.506;11.876;2024-03-08T01:58:52;5.60;67.80
14585;DHT22;7379;51.506;11.876;2024-03-08T02:01:20;5.60;67.80
14585;DHT22;7379;51.506;11.876;2024-03-08T02:03:46;5.60;67.80
14585;DHT22;7379;51.506;11.876;2024-03-08T02:06:13;5.60;67.80
14585;DHT22;7379;51.506;11.876;2024-03-08T02:08:42;5.60;67.80
14585;DHT22;7379;51.506;11.876;2024-03-08T02:11:09;5.60;67.80
14585;DHT22;7379;51.506;11.876;2024-03-08T02:13:36;5.60;67.90
14585;DHT22;7379;51.506;11.876;2024-03-08T02:16:03;5.50;67.80
14585;DHT22;7379;51.506;11.876;2024-03-08T02:18:31;5.50;67.80
14585;DHT22;7379;51.506;11.876;2024-03-08T02:21:02;5.50;67.70
14585;DHT22;7379;51.506;11.876;2024-03-08T02:23:29;5.50;67.70
14585;DHT22;7379;51.506;11.876;2024-03-08T02:25:57;5.50;67.70
14585;DHT22;7379;51.506;11.876;2024-03-08T02:28:24;5.50;67.70
14585;DHT22;7379;51.506;11.876;2024-03-08T02:30:51;5.50;67.80
14585;DHT22;7379;51.506;11.876;2024-03-08T02:33:20;5.50;67.70
14585;DHT22;7379;51.506;11.876;2024-03-08T02:35:47;5.50;67.70
14585;DHT22;7379;51.506;11.876;2024-03-08T02:38:16;5.50;67.80
14585;DHT22;7379;51.506;11.876;2024-03-08T02:40:45;5.40;67.70
14585;DHT22;7379;51.506;11.876;2024-03-08T02:43:12;5.40;67.70
14585;DHT22;7379;51.506;11.876;2024-03-08T02:45:40;5.40;67.70
14585;DHT22;7379;51.506;11.876;2024-03-08T02:48:07;5.40;67.70
14585;DHT22;7379;51.506;11.876;2024-03-08T02:50:34;5.40;67.80
14585;DHT22;7379;51.506;11.876;2024-03-08T02:53:01;5.40;67.70
14585;DHT22;7379;51.506;11.876;2024-03-08T02:55:30;5.40;67.80
14585;DHT22;7379;51.506;11.876;2024-03-08T02:57:56;5.40;67.70
14585;DHT22;7379;51.506;11.876;2024-03-08T03:00:24;5.30;67.70
14585;DHT22;7379;51.506;11.876;2024-03-08T03:02:51;5.30;67.60
14585;DHT22;7379;51.506;11.876;2024-03-08T03:05:19;5.30;67.60
14585;DHT22;7379;51.506;11.876;2024-03-08T03:07:45;5.30;67.60
14585;DHT22;7379;51.506;11.876;2024-03-08T03:10:14;5.30;67.60
14585;DHT22;7379;51.506;11.876;2024-03-08T03:12:44;5.30;67.60
14585;DHT22;7379;51.506;11.876;2024-03-08T03:15:11;5.30;67.60
14585;DHT22;7379;51.506;11.876;2024-03-08T03:17:38;5.20;67.60
14585;DHT22;7379;51.506;11.876;2024-03-08T03:20:06;5.30;67.70
14585;DHT22;7379;51.506;11.876;2024-03-08T03:22:36;5.20;67.60
14585;DHT22;7379;51.506;11.876;2024-03-08T03:25:04;5.20;67.60
14585;DHT22;7379;51.506;11.876;2024-03-08T03:27:32;5.20;67.60
14585;DHT22;7379;51.506;11.876;2024-03-08T03:29:59;5.20;67.60
14585;DHT22;7379;51.506;11.876;2024-03-08T03:32:46;5.20;67.60
14585;DHT22;7379;51.506;11.876;2024-03-08T03:35:13;5.20;67.60
14585;DHT22;7379;51.506;11.876;2024-03-08T03:37:40;5.20;67.60
14585;DHT22;7379;51.506;11.876;2024-03-08T03:40:08;5.20;67.70
14585;DHT22;7379;51.506;11.876;2024-03-08T03:42:35;5.10;67.60
14585;DHT22;7379;51.506;11.876;2024-03-08T03:45:05;5.10;67.60
14585;DHT22;7379;51.506;11.876;2024-03-08T03:47:32;5.10;67.60
14585;DHT22;7379;51.506;11.876;2024-03-08T03:49:59;5.10;67.60
14585;DHT22;7379;51.506;11.876;2024-03-08T03:52:27;5.10;67.60
14585;DHT22;7379;51.506;11.876;2024-03-08T03:54:54;5.00;67.50
14585;DHT22;7379;51.506;11.876;2024-03-08T03:57:20;5.10;67.60
14585;DHT22;7379;51.506;11.876;2024-03-08T03:59:48;5.10;67.60
14585;DHT22;7379;51.506;11.876;2024-03-08T04:02:17;5.00;67.60
14585;DHT22;7379;51.506;11.876;2024-03-08T04:04:46;5.00;67.60
14585;DHT22;7379;51.506;11.876;2024-03-08T04:07:13;5.00;67.60
14585;DHT22;7379;51.506;11.876;2024-03-08T04:09:39;5.00;67.60
14585;DHT22;7379;51.506;11.876;2024-03-08T04:12:06;5.00;67.60
14585;DHT22;7379;51.506;11.876;2024-03-08T04:14:35;5.00;67.60
14585;DHT22;7379;51.506;11.876;2024-03-08T04:17:02;5.00;67.60
14585;DHT22;7379;51.506;11.876;2024-03-08T04:19:30;5.00;67.60
14585;DHT22;7379;51.506;11.876;2024-03-08T04:21:56;5.00;67.50
14585;DHT22;7379;51.506;11.876;2024-03-08T04:24:23;5.00;67.60
14585;DHT22;7379;51.506;11.876;2024-03-08T04:26:50;4.90;67.50
14585;DHT22;7379;51.506;11.876;2024-03-08T04:29:17;4.90;67.50
14585;DHT22;7379;51.506;11.876;2024-03-08T04:31:43;4.90;67.50
14585;DHT22;7379;51.506;11.876;2024-03-08T04:34:10;4.90;67.50
14585;DHT22;7379;51.506;11.876;2024-03-08T04:36:38;4.90;67.60
14585;DHT22;7379;51.506;11.876;2024-03-08T04:39:05;4.90;67.60
14585;DHT22;7379;51.506;11.876;2024-03-08T04:41:35;4.90;67.60
14585;DHT22;7379;51.506;11.876;2024-03-08T04:44:03;4.90;67.60
14585;DHT22;7379;51.506;11.876;2024-03-08T04:46:30;4.80;67.50
14585;DHT22;7379;51.506;11.876;2024-03-08T04:48:56;4.80;67.50
14585;DHT22;7379;51.506;11.876;2024-03-08T04:51:24;4.80;67.50
14585;DHT22;7379;51.506;11.876;2024-03-08T04:53:52;4.80;67.50
14585;DHT22;7379;51.506;11.876;2024-03-08T04:56:19;4.80;67.50
14585;DHT22;7379;51.506;11.876;2024-03-08T04:58:45;4.80;67.50
14585;DHT22;7379;51.506;11.876;2024-03-08T05:01:22;4.80;67.50
14585;DHT22;7379;51.506;11.876;2024-03-08T05:03:48;4.80;67.60
14585;DHT22;7379;51.506;11.876;2024-03-08T05:06:15;4.70;67.40
14585;DHT22;7379;51.506;11.876;2024-03-08T05:08:42;4.70;67.40
14585;DHT22;7379;51.506;11.876;2024-03-08T05:11:10;4.70;67.40
14585;DHT22;7379;51.506;11.876;2024-03-08T05:13:39;4.70;67.40
14585;DHT22;7379;51.506;11.876;2024-03-08T05:16:06;4.70;67.40
14585;DHT22;7379;51.506;11.876;2024-03-08T05:18:34;4.70;67.40
14585;DHT22;7379;51.506;11.876;2024-03-08T05:21:01;4.70;67.50
14585;DHT22;7379;51.506;11.876;2024-03-08T05:23:29;4.70;67.50
14585;DHT22;7379;51.506;11.876;2024-03-08T05:25:56;4.60;67.40
14585;DHT22;7379;51.506;11.876;2024-03-08T05:28:24;4.70;67.50
14585;DHT22;7379;51.506;11.876;2024-03-08T05:30:50;4.70;67.50
14585;DHT22;7379;51.506;11.876;2024-03-08T05:33:17;4.60;67.40
14585;DHT22;7379;51.506;11.876;2024-03-08T05:35:44;4.60;67.40
14585;DHT22;7379;51.506;11.876;2024-03-08T05:38:11;4.60;67.40
14585;DHT22;7379;51.506;11.876;2024-03-08T05:40:38;4.60;67.40
14585;DHT22;7379;51.506;11.876;2024-03-08T05:43:05;4.60;67.50
14585;DHT22;7379;51.506;11.876;2024-03-08T05:45:33;4.60;67.50
14585;DHT22;7379;51.506;11.876;2024-03-08T05:48:00;4.60;67.60
14585;DHT22;7379;51.506;11.876;2024-03-08T05:50:27;4.60;67.50
14585;DHT22;7379;51.506;11.876;2024-03-08T05:52:53;4.50;67.40
14585;DHT22;7379;51.506;11.876;2024-03-08T05:55:20;4.50;67.50
14585;DHT22;7379;51.506;11.876;2024-03-08T05:57:50;4.50;67.40
14585;DHT22;7379;51.506;11.876;2024-03-08T06:00:17;4.50;67.40
14585;DHT22;7379;51.506;11.876;2024-03-08T06:02:45;4.50;67.40
14585;DHT22;7379;51.506;11.876;2024-03-08T06:05:12;4.50;67.50
14585;DHT22;7379;51.506;11.876;2024-03-08T06:07:39;4.50;67.50
14585;DHT22;7379;51.506;11.876;2024-03-08T06:10:08;4.50;67.40
14585;DHT22;7379;51.506;11.876;2024-03-08T06:12:36;4.50;67.50
14585;DHT22;7379;51.506;11.876;2024-03-08T06:15:06;4.50;67.50
14585;DHT22;7379;51.506;11.876;2024-03-08T06:17:33;4.50;67.50
14585;DHT22;7379;51.506;11.876;2024-03-08T06:20:01;4.50;67.50
14585;DHT22;7379;51.506;11.876;2024-03-08T06:22:29;4.40;67.50
14585;DHT22;7379;51.506;11.876;2024-03-08T06:24:56;4.40;67.50
14585;DHT22;7379;51.506;11.876;2024-03-08T06:27:22;4.40;67.50
14585;DHT22;7379;51.506;11.876;2024-03-08T06:29:49;4.40;67.50
14585;DHT22;7379;51.506;11.876;2024-03-08T06:32:15;4.40;67.50
14585;DHT22;7379;51.506;11.876;2024-03-08T06:34:42;4.40;67.50
14585;DHT22;7379;51.506;11.876;2024-03-08T06:37:10;4.40;67.60
14585;DHT22;7379;51.506;11.876;2024-03-08T06:39:36;4.40;67.60
14585;DHT22;7379;51.506;11.876;2024-03-08T06:42:03;4.40;67.60
14585;DHT22;7379;51.506;11.876;2024-03-08T06:44:31;4.40;67.60
14585;DHT22;7379;51.506;11.876;2024-03-08T06:46:58;4.40;67.70
14585;DHT22;7379;51.506;11.876;2024-03-08T06:49:25;4.40;67.70
14585;DHT22;7379;51.506;11.876;2024-03-08T06:51:52;4.40;67.70
14585;DHT22;7379;51.506;11.876;2024-03-08T06:54:20;4.40;67.70
14585;DHT22;7379;51.506;11.876;2024-03-08T06:56:47;4.40;67.70
14585;DHT22;7379;51.506;11.876;2024-03-08T06:59:14;4.40;67.70
14585;DHT22;7379;51.506;11.876;2024-03-08T07:01:43;4.40;67.70
14585;DHT22;7379;51.506;11.876;2024-03-08T07:04:10;4.30;67.60
14585;DHT22;7379;51.506;11.876;2024-03-08T07:06:37;4.30;67.60
14585;DHT22;7379;51.506;11.876;2024-03-08T07:09:03;4.30;67.60
14585;DHT22;7379;51.506;11.876;2024-03-08T07:11:31;4.30;67.60
14585;DHT22;7379;51.506;11.876;2024-03-08T07:14:00;4.30;67.70
14585;DHT22;7379;51.506;11.876;2024-03-08T07:16:30;4.30;67.70
14585;DHT22;7379;51.506;11.876;2024-03-08T07:18:57;4.30;67.70
14585;DHT22;7379;51.506;11.876;2024-03-08T07:21:24;4.30;67.70
14585;DHT22;7379;51.506;11.876;2024-03-08T07:23:51;4.30;67.80
14585;DHT22;7379;51.506;11.876;2024-03-08T07:26:40;4.30;67.90
14585;DHT22;7379;51.506;11.876;2024-03-08T07:29:06;4.30;67.90
14585;DHT22;7379;51.506;11.876;2024-03-08T07:31:33;4.30;68.00
14585;DHT22;7379;51.506;11.876;2024-03-08T07:34:10;4.30;68.00
14585;DHT22;7379;51.506;11.876;2024-03-08T07:36:37;4.30;68.10
14585;DHT22;7379;51.506;11.876;2024-03-08T07:39:04;4.30;68.10
14585;DHT22;7379;51.506;11.876;2024-03-08T07:41:34;4.30;68.20
14585;DHT22;7379;51.506;11.876;2024-03-08T07:44:03;4.30;68.10
14585;DHT22;7379;51.506;11.876;2024-03-08T07:46:29;4.30;68.10
14585;DHT22;7379;51.506;11.876;2024-03-08T07:48:56;4.30;68.10
14585;DHT22;7379;51.506;11.876;2024-03-08T07:51:23;4.40;68.20
14585;DHT22;7379;51.506;11.876;2024-03-08T07:53:49;4.40;68.10
14585;DHT22;7379;51.506;11.876;2024-03-08T07:56:16;4.40;68.10
14585;DHT22;7379;51.506;11.876;2024-03-08T07:58:43;4.40;68.10
14585;DHT22;7379;51.506;11.876;2024-03-08T08:01:17;4.40;68.00
14585;DHT22;7379;51.506;11.876;2024-03-08T08:03:43;4.40;68.00
14585;DHT22;7379;51.506;11.876;2024-03-08T08:06:10;4.40;68.00
14585;DHT22;7379;51.506;11.876;2024-03-08T08:08:41;4.40;68.10
14585;DHT22;7379;51.506;11.876;2024-03-08T08:11:07;4.40;68.00
14585;DHT22;7379;51.506;11.876;2024-03-08T08:13:35;4.50;68.20
14585;DHT22;7379;51.506;11.876;2024-03-08T08:16:02;4.40;68.10
14585;DHT22;7379;51.506;11.876;2024-03-08T08:18:30;4.50;68.30
14585;DHT22;7379;51.506;11.876;2024-03-08T08:20:58;4.40;68.10
14585;DHT22;7379;51.506;11.876;2024-03-08T08:23:25;4.50;68.30
14585;DHT22;7379;51.506;11.876;2024-03-08T08:25:52;4.50;68.30
14585;DHT22;7379;51.506;11.876;2024-03-08T08:28:19;4.50;68.30
14585;DHT22;7379;51.506;11.876;2024-03-08T08:30:46;4.50;68.30
14585;DHT22;7379;51.506;11.876;2024-03-08T08:33:14;4.50;68.40
14585;DHT22;7379;51.506;11.876;2024-03-08T08:35:42;4.50;68.40
14585;DHT22;7379;51.506;11.876;2024-03-08T08:38:09;4.50;68.40
14585;DHT22;7379;51.506;11.876;2024-03-08T08:40:35;4.50;68.40
14585;DHT22;7379;51.506;11.876;2024-03-08T08:43:02;4.50;68.40
14585;DHT22;7379;51.506;11.876;2024-03-08T08:45:30;4.50;68.50
14585;DHT22;7379;51.506;11.876;2024-03-08T08:47:57;4.50;68.50
14585;DHT22;7379;51.506;11.876;2024-03-08T08:50:25;4.50;68.60
14585;DHT22;7379;51.506;11.876;2024-03-08T08:52:53;4.50;68.60
14585;DHT22;7379;51.506;11.876;2024-03-08T08:55:19;4.50;68.60
14585;DHT22;7379;51.506;11.876;2024-03-08T08:57:50;4.50;68.70
14585;DHT22;7379;51.506;11.876;2024-03-08T09:00:17;4.50;68.80
14585;DHT22;7379;51.506;11.876;2024-03-08T09:02:45;4.50;68.80
14585;DHT22;7379;51.506;11.876;2024-03-08T09:05:12;4.50;68.90
14585;DHT22;7379;51.506;11.876;2024-03-08T09:07:42;4.50;68.90
14585;DHT22;7379;51.506;11.876;2024-03-08T09:10:11;4.50;69.00
14585;DHT22;7379;51.506;11.876;2024-03-08T09:12:39;4.50;69.10
14585;DHT22;7379;51.506;11.876;2024-03-08T09:15:07;4.50;69.10
14585;DHT22;7379;51.506;11.876;2024-03-08T09:17:36;4.50;69.20
14585;DHT22;7379;51.506;11.876;2024-03-08T09:20:05;4.50;69.30
14585;DHT22;7379;51.506;11.876;2024-03-08T09:22:32;4.50;69.30
14585;DHT22;7379;51.506;11.876;2024-03-08T09:24:59;4.50;69.50
14585;DHT22;7379;51.506;11.876;2024-03-08T09:27:27;4.50;69.40
14585;DHT22;7379;51.506;11.876;2024-03-08T09:29:55;4.50;69.50
14585;DHT22;7379;51.506;11.876;2024-03-08T09:32:21;4.50;69.50
14585;DHT22;7379;51.506;11.876;2024-03-08T09:34:48;4.50;69.60
14585;DHT22;7379;51.506;11.876;2024-03-08T09:37:15;4.50;69.70
14585;DHT22;7379;51.506;11.876;2024-03-08T09:39:46;4.50;69.70
14585;DHT22;7379;51.506;11.876;2024-03-08T09:42:15;4.50;69.80
14585;DHT22;7379;51.506;11.876;2024-03-08T09:44:45;4.50;69.90
14585;DHT22;7379;51.506;11.876;2024-03-08T09:47:13;4.50;69.90
14585;DHT22;7379;51.506;11.876;2024-03-08T09:49:40;4.60;70.00
14585;DHT22;7379;51.506;11.876;2024-03-08T09:52:07;4.60;70.00
14585;DHT22;7379;51.506;11.876;2024-03-08T09:54:35;4.60;70.10
14585;DHT22;7379;51.506;11.876;2024-03-08T09:57:04;4.60;70.20
14585;DHT22;7379;51.506;11.876;2024-03-08T09:59:30;4.60;70.10
14585;DHT22;7379;51.506;11.876;2024-03-08T10:02:16;4.60;70.20
14585;DHT22;7379;51.506;11.876;2024-03-08T10:04:43;4.60;70.20
14585;DHT22;7379;51.506;11.876;2024-03-08T10:07:12;4.60;70.20
14585;DHT22;7379;51.506;11.876;2024-03-08T10:09:39;4.60;70.20
14585;DHT22;7379;51.506;11.876;2024-03-08T10:12:07;4.60;70.30
14585;DHT22;7379;51.506;11.876;2024-03-08T10:14:39;4.60;70.30
14585;DHT22;7379;51.506;11.876;2024-03-08T10:17:06;4.60;71.10
14585;DHT22;7379;51.506;11.876;2024-03-08T10:19:34;4.70;70.50
14585;DHT22;7379;51.506;11.876;2024-03-08T10:22:00;4.70;70.60
14585;DHT22;7379;51.506;11.876;2024-03-08T10:24:31;4.70;70.50
14585;DHT22;7379;51.506;11.876;2024-03-08T10:26:59;4.70;70.50
14585;DHT22;7379;51.506;11.876;2024-03-08T10:29:27;4.70;70.50
14585;DHT22;7379;51.506;11.876;2024-03-08T10:31:54;4.70;70.50
14585;DHT22;7379;51.506;11.876;2024-03-08T10:34:22;4.70;70.50
14585;DHT22;7379;51.506;11.876;2024-03-08T10:36:51;4.70;70.40
14585;DHT22;7379;51.506;11.876;2024-03-08T10:39:22;4.80;70.70
14585;DHT22;7379;51.506;11.876;2024-03-08T10:41:53;4.80;70.70
14585;DHT22;7379;51.506;11.876;2024-03-08T10:44:43;4.80;70.50
14585;DHT22;7379;51.506;11.876;2024-03-08T10:47:15;4.90;70.70
14585;DHT22;7379;51.506;11.876;2024-03-08T10:49:51;4.90;70.70
14585;DHT22;7379;51.506;11.876;2024-03-08T10:52:20;4.90;70.50
14585;DHT22;7379;51.506;11.876;2024-03-08T10:54:48;4.90;70.60
14585;DHT22;7379;51.506;11.876;2024-03-08T10:57:17;5.00;70.60
14585;DHT22;7379;51.506;11.876;2024-03-08T10:59:46;5.00;70.50
14585;DHT22;7379;51.506;11.876;2024-03-08T11:02:15;5.10;70.50
14585;DHT22;7379;51.506;11.876;2024-03-08T11:04:46;5.10;70.20
14585;DHT22;7379;51.506;11.876;2024-03-08T11:07:14;5.10;70.20
14585;DHT22;7379;51.506;11.876;2024-03-08T11:09:44;5.10;70.30
14585;DHT22;7379;51.506;11.876;2024-03-08T11:12:22;5.10;70.20
14585;DHT22;7379;51.506;11.876;2024-03-08T11:14:52;5.20;70.20
14585;DHT22;7379;51.506;11.876;2024-03-08T11:17:26;5.20;70.10
14585;DHT22;7379;51.506;11.876;2024-03-08T11:19:55;5.20;69.80
14585;DHT22;7379;51.506;11.876;2024-03-08T11:22:23;5.30;69.70
14585;DHT22;7379;51.506;11.876;2024-03-08T11:24:53;5.30;69.50
14585;DHT22;7379;51.506;11.876;2024-03-08T11:27:29;5.30;69.50
14585;DHT22;7379;51.506;11.876;2024-03-08T11:30:00;5.40;69.10
14585;DHT22;7379;51.506;11.876;2024-03-08T11:32:36;5.30;69.00
14585;DHT22;7379;51.506;11.876;2024-03-08T11:35:06;5.30;69.20
14585;DHT22;7379;51.506;11.876;2024-03-08T11:37:34;5.40;69.30
14585;DHT22;7379;51.506;11.876;2024-03-08T11:40:11;5.40;69.30
14585;DHT22;7379;51.506;11.876;2024-03-08T11:42:40;5.40;69.40
14585;DHT22;7379;51.506;11.876;2024-03-08T11:45:08;5.40;69.20
14585;DHT22;7379;51.506;11.876;2024-03-08T11:47:36;5.40;69.00
14585;DHT22;7379;51.506;11.876;2024-03-08T11:50:06;5.50;69.20
14585;DHT22;7379;51.506;11.876;2024-03-08T11:52:36;5.50;68.90
14585;DHT22;7379;51.506;11.876;2024-03-08T11:55:05;5.50;68.80
14585;DHT22;7379;51.506;11.876;2024-03-08T11:57:32;5.50;68.60
14585;DHT22;7379;51.506;11.876;2024-03-08T11:59:59;5.60;68.40
14585;DHT22;7379;51.506;11.876;2024-03-08T12:02:32;5.60;68.40
14585;DHT22;7379;51.506;11.876;2024-03-08T12:05:01;5.60;69.00
14585;DHT22;7379;51.506;11.876;2024-03-08T12:07:28;5.70;68.20
14585;DHT22;7379;51.506;11.876;2024-03-08T12:10:16;5.70;68.20
14585;DHT22;7379;51.506;11.876;2024-03-08T12:12:43;5.70;68.10
14585;DHT22;7379;51.506;11.876;2024-03-08T12:15:10;5.70;68.00
14585;DHT22;7379;51.506;11.876;2024-03-08T12:17:37;5.80;67.80
14585;DHT22;7379;51.506;11.876;2024-03-08T12:20:11;5.80;68.00
14585;DHT22;7379;51.506;11.876;2024-03-08T12:22:41;5.80;67.70
14585;DHT22;7379;51.506;11.876;2024-03-08T12:25:09;5.80;67.70
14585;DHT22;7379;51.506;11.876;2024-03-08T12:27:38;5.80;67.60
14585;DHT22;7379;51.506;11.876;2024-03-08T12:30:21;5.90;67.60
14585;DHT22;7379;51.506;11.876;2024-03-08T12:32:55;5.80;67.90
14585;DHT22;7379;51.506;11.876;2024-03-08T12:35:24;5.90;67.90
14585;DHT22;7379;51.506;11.876;2024-03-08T12:37:52;5.90;67.80
14585;DHT22;7379;51.506;11.876;2024-03-08T12:40:21;6.00;67.60
14585;DHT22;7379;51.506;11.876;2024-03-08T12:42:54;6.00;67.60
14585;DHT22;7379;51.506;11.876;2024-03-08T12:45:20;6.10;67.30
14585;DHT22;7379;51.506;11.876;2024-03-08T12:47:49;6.10;67.20
14585;DHT22;7379;51.506;11.876;2024-03-08T12:50:16;6.20;68.20
14585;DHT22;7379;51.506;11.876;2024-03-08T12:52:43;6.20;67.20
14585;DHT22;7379;51.506;11.876;2024-03-08T12:55:09;6.20;67.00
14585;DHT22;7379;51.506;11.876;2024-03-08T12:57:37;6.30;67.30
14585;DHT22;7379;51.506;11.876;2024-03-08T13:00:06;6.30;66.90
14585;DHT22;7379;51.506;11.876;2024-03-08T13:02:38;6.30;66.70
14585;DHT22;7379;51.506;11.876;2024-03-08T13:05:06;6.40;66.70
14585;DHT22;7379;51.506;11.876;2024-03-08T13:07:35;6.50;66.40
14585;DHT22;7379;51.506;11.876;2024-03-08T13:10:03;6.50;66.40
14585;DHT22;7379;51.506;11.876;2024-03-08T13:12:30;6.50;66.20
14585;DHT22;7379;51.506;11.876;2024-03-08T13:14:56;6.50;66.10
14585;DHT22;7379;51.506;11.876;2024-03-08T13:17:24;6.50;66.00
14585;DHT22;7379;51.506;11.876;2024-03-08T13:19:52;6.60;66.00
14585;DHT22;7379;51.506;11.876;2024-03-08T13:22:22;6.60;66.00
14585;DHT22;7379;51.506;11.876;2024-03-08T13:24:50;6.60;66.20
14585;DHT22;7379;51.506;11.876;2024-03-08T13:27:27;6.80;66.50
14585;DHT22;7379;51.506;11.876;2024-03-08T13:29:54;6.70;66.10
14585;DHT22;7379;51.506;11.876;2024-03-08T13:32:20;6.70;66.20
14585;DHT22;7379;51.506;11.876;2024-03-08T13:34:47;6.80;66.40
14585;DHT22;7379;51.506;11.876;2024-03-08T13:37:16;6.80;66.50
14585;DHT22;7379;51.506;11.876;2024-03-08T13:39:43;6.80;66.80
14585;DHT22;7379;51.506;11.876;2024-03-08T13:42:11;6.80;66.40
14585;DHT22;7379;51.506;11.876;2024-03-08T13:44:43;6.80;66.30
14585;DHT22;7379;51.506;11.876;2024-03-08T13:47:11;6.90;66.40
14585;DHT22;7379;51.506;11.876;2024-03-08T13:49:39;6.90;66.00
14585;DHT22;7379;51.506;11.876;2024-03-08T13:52:06;6.90;66.10
14585;DHT22;7379;51.506;11.876;2024-03-08T13:54:33;6.90;66.20
14585;DHT22;7379;51.506;11.876;2024-03-08T13:57:00;7.00;66.10
14585;DHT22;7379;51.506;11.876;2024-03-08T13:59:29;6.90;66.10
14585;DHT22;7379;51.506;11.876;2024-03-08T14:01:57;7.00;66.20
14585;DHT22;7379;51.506;11.876;2024-03-08T14:04:25;7.00;66.20
14585;DHT22;7379;51.506;11.876;2024-03-08T14:06:52;7.00;66.10
14585;DHT22;7379;51.506;11.876;2024-03-08T14:09:24;7.10;66.30
14585;DHT22;7379;51.506;11.876;2024-03-08T14:11:52;7.20;66.00
14585;DHT22;7379;51.506;11.876;2024-03-08T14:14:20;7.10;65.60
14585;DHT22;7379;51.506;11.876;2024-03-08T14:16:48;7.20;65.70
14585;DHT22;7379;51.506;11.876;2024-03-08T14:19:19;7.20;65.50
14585;DHT22;7379;51.506;11.876;2024-03-08T14:21:46;7.30;65.40
14585;DHT22;7379;51.506;11.876;2024-03-08T14:24:14;7.40;65.40
14585;DHT22;7379;51.506;11.876;2024-03-08T14:26:40;7.40;65.20
14585;DHT22;7379;51.506;11.876;2024-03-08T14:29:07;7.50;65.40
14585;DHT22;7379;51.506;11.876;2024-03-08T14:31:35;7.60;64.30
14585;DHT22;7379;51.506;11.876;2024-03-08T14:34:02;7.60;64.30
14585;DHT22;7379;51.506;11.876;2024-03-08T14:36:30;7.70;64.30
14585;DHT22;7379;51.506;11.876;2024-03-08T14:38:56;7.70;64.00
14585;DHT22;7379;51.506;11.876;2024-03-08T14:41:23;7.70;64.00
14585;DHT22;7379;51.506;11.876;2024-03-08T14:43:50;7.70;63.90
14585;DHT22;7379;51.506;11.876;2024-03-08T14:46:18;7.80;63.70
14585;DHT22;7379;51.506;11.876;2024-03-08T14:48:46;7.80;63.60
14585;DHT22;7379;51.506;11.876;2024-03-08T14:51:13;7.90;63.70
14585;DHT22;7379;51.506;11.876;2024-03-08T14:53:41;7.90;63.50
14585;DHT22;7379;51.506;11.876;2024-03-08T14:56:11;7.80;63.40
14585;DHT22;7379;51.506;11.876;2024-03-08T14:58:41;7.90;63.40
14585;DHT22;7379;51.506;11.876;2024-03-08T15:01:09;7.90;63.30
14585;DHT22;7379;51.506;11.876;2024-03-08T15:03:36;7.90;63.00
14585;DHT22;7379;51.506;11.876;2024-03-08T15:06:04;8.00;62.90
14585;DHT22;7379;51.506;11.876;2024-03-08T15:08:34;8.00;62.80
14585;DHT22;7379;51.506;11.876;2024-03-08T15:11:02;8.00;63.50
14585;DHT22;7379;51.506;11.876;2024-03-08T15:13:29;8.00;62.90
14585;DHT22;7379;51.506;11.876;2024-03-08T15:16:05;7.90;63.00
14585;DHT22;7379;51.506;11.876;2024-03-08T15:18:33;7.90;63.10
14585;DHT22;7379;51.506;11.876;2024-03-08T15:21:02;7.90;63.00
14585;DHT22;7379;51.506;11.876;2024-03-08T15:23:32;8.00;63.60
14585;DHT22;7379;51.506;11.876;2024-03-08T15:25:58;8.00;63.00
14585;DHT22;7379;51.506;11.876;2024-03-08T15:28:28;8.10;62.70
14585;DHT22;7379;51.506;11.876;2024-03-08T15:31:02;8.20;62.60
14585;DHT22;7379;51.506;11.876;2024-03-08T15:33:32;8.20;62.30
14585;DHT22;7379;51.506;11.876;2024-03-08T15:35:59;8.20;62.40
14585;DHT22;7379;51.506;11.876;2024-03-08T15:38:29;8.20;62.40
14585;DHT22;7379;51.506;11.876;2024-03-08T15:40:57;8.10;62.20
14585;DHT22;7379;51.506;11.876;2024-03-08T15:43:23;8.20;62.40
14585;DHT22;7379;51.506;11.876;2024-03-08T15:45:51;8.10;63.00
14585;DHT22;7379;51.506;11.876;2024-03-08T15:48:20;8.00;62.80
14585;DHT22;7379;51.506;11.876;2024-03-08T15:50:47;7.90;63.10